createdAt,value
2019-03-29T00:02:17.606Z,10.80
2019-03-29T00:04:50.971Z,10.57
2019-03-29T00:07:38.569Z,11.57
2019-03-29T00:09:59.402Z,10.37
2019-03-29T00:12:32.826Z,11.20
2019-03-29T00:15:08.097Z,14.20
2019-03-29T00:17:41.753Z,15.63
2019-03-29T00:20:15.483Z,12.40
2019-03-29T00:22:48.907Z,13.53
2019-03-29T00:25:22.318Z,13.30
2019-03-29T00:27:55.653Z,11.00
2019-03-29T00:30:29.091Z,13.67
2019-03-29T00:33:02.509Z,11.17
2019-03-29T00:35:35.887Z,10.30
2019-03-29T00:38:09.245Z,11.17
2019-03-29T00:40:42.603Z,14.57
2019-03-29T00:43:16.020Z,9.87
2019-03-29T00:45:49.382Z,12.70
2019-03-29T00:48:22.805Z,13.20
2019-03-29T00:50:56.239Z,11.00
2019-03-29T00:53:29.575Z,12.20
2019-03-29T00:56:02.958Z,15.70
2019-03-29T00:58:36.300Z,11.27
2019-03-29T01:01:09.660Z,13.77
2019-03-29T01:03:43.010Z,13.23
2019-03-29T01:06:16.631Z,12.73
2019-03-29T01:08:50.029Z,14.27
2019-03-29T01:11:23.416Z,13.63
2019-03-29T01:13:56.807Z,13.80
2019-03-29T01:16:30.222Z,13.10
2019-03-29T01:19:04.020Z,13.03
2019-03-29T01:21:37.605Z,12.23
2019-03-29T01:24:11.042Z,12.40
2019-03-29T01:26:44.468Z,13.50
2019-03-29T01:29:17.979Z,14.00
2019-03-29T01:31:51.391Z,11.03
2019-03-29T01:34:24.783Z,14.03
2019-03-29T01:36:58.208Z,11.87
2019-03-29T01:39:31.561Z,11.77
2019-03-29T01:42:04.977Z,12.30
2019-03-29T01:44:38.417Z,13.00
2019-03-29T01:47:11.786Z,11.77
2019-03-29T01:49:45.154Z,10.60
2019-03-29T01:52:19.308Z,13.87
2019-03-29T01:54:53.484Z,11.83
2019-03-29T01:57:26.850Z,12.63
2019-03-29T02:00:00.398Z,12.93
2019-03-29T02:02:33.748Z,12.80
2019-03-29T02:05:07.954Z,14.20
2019-03-29T02:07:41.292Z,13.77
2019-03-29T02:10:14.708Z,12.37
2019-03-29T02:12:48.126Z,13.80
2019-03-29T02:15:21.482Z,13.83
2019-03-29T02:17:54.848Z,13.67
2019-03-29T02:20:28.282Z,15.10
2019-03-29T02:23:01.785Z,17.33
2019-03-29T02:25:35.202Z,14.60
2019-03-29T02:28:08.533Z,12.40
2019-03-29T02:30:41.876Z,13.27
2019-03-29T02:33:15.304Z,10.93
2019-03-29T02:35:48.717Z,17.47
2019-03-29T02:38:23.550Z,14.10
2019-03-29T02:40:57.151Z,12.67
2019-03-29T02:43:30.566Z,13.57
2019-03-29T02:46:03.919Z,13.83
2019-03-29T02:48:37.344Z,13.83
2019-03-29T02:51:10.724Z,11.37
2019-03-29T02:53:44.182Z,12.70
2019-03-29T02:56:17.560Z,13.20
2019-03-29T02:58:50.887Z,13.13
2019-03-29T03:01:24.350Z,16.10
2019-03-29T03:03:57.751Z,13.83
2019-03-29T03:06:31.113Z,15.03
2019-03-29T03:09:13.678Z,14.70
2019-03-29T03:11:41.438Z,15.53
2019-03-29T03:14:14.781Z,16.47
2019-03-29T03:16:48.206Z,15.13
2019-03-29T03:19:21.657Z,15.33
2019-03-29T03:21:55.017Z,15.73
2019-03-29T03:24:28.365Z,15.47
2019-03-29T03:27:01.794Z,14.70
2019-03-29T03:29:35.239Z,17.20
2019-03-29T03:32:08.606Z,14.33
2019-03-29T03:34:41.941Z,17.07
2019-03-29T03:37:15.364Z,15.73
2019-03-29T03:39:48.780Z,15.00
2019-03-29T03:42:22.659Z,16.23
2019-03-29T03:44:56.085Z,16.10
2019-03-29T03:47:29.525Z,17.00
2019-03-29T03:50:02.839Z,17.30
2019-03-29T03:52:36.308Z,15.23
2019-03-29T03:55:09.676Z,21.73
2019-03-29T03:57:43.193Z,19.67
2019-03-29T04:00:19.696Z,17.93
2019-03-29T04:02:53.120Z,19.40
2019-03-29T04:05:26.543Z,17.30
2019-03-29T04:07:59.899Z,16.93
2019-03-29T04:10:33.260Z,14.80
2019-03-29T04:13:06.691Z,19.17
2019-03-29T04:15:40.215Z,20.20
2019-03-29T04:18:16.110Z,16.93
2019-03-29T04:20:48.885Z,15.67
2019-03-29T04:23:22.271Z,17.17
2019-03-29T04:25:55.693Z,14.93
2019-03-29T04:28:29.129Z,19.97
2019-03-29T04:31:02.549Z,17.97
2019-03-29T04:33:36.007Z,18.13
2019-03-29T04:36:09.420Z,19.27
2019-03-29T04:38:42.870Z,18.73
2019-03-29T04:41:16.211Z,16.60
2019-03-29T04:43:49.669Z,17.97
2019-03-29T04:46:23.018Z,17.60
2019-03-29T04:48:56.370Z,15.47
2019-03-29T04:51:29.754Z,18.37
2019-03-29T04:54:03.199Z,18.10
2019-03-29T04:56:36.636Z,16.17
2019-03-29T04:59:10.064Z,26.20
2019-03-29T05:01:43.496Z,19.17
2019-03-29T05:04:16.866Z,21.20
2019-03-29T05:06:50.229Z,21.23
2019-03-29T05:09:23.609Z,23.80
2019-03-29T05:11:57.055Z,22.53
2019-03-29T05:14:30.532Z,25.97
2019-03-29T05:17:03.934Z,25.43
2019-03-29T05:19:37.286Z,32.27
2019-03-29T05:22:10.644Z,25.10
2019-03-29T05:24:43.982Z,32.73
2019-03-29T05:27:17.342Z,25.80
2019-03-29T05:29:50.770Z,23.53
2019-03-29T05:32:24.285Z,28.40
2019-03-29T05:34:57.764Z,26.70
2019-03-29T05:37:31.134Z,26.97
2019-03-29T05:40:06.033Z,28.17
2019-03-29T05:42:39.382Z,23.97
2019-03-29T05:45:12.902Z,29.07
2019-03-29T05:47:46.268Z,27.60
2019-03-29T05:50:19.696Z,20.13
2019-03-29T05:52:53.200Z,22.93
2019-03-29T05:55:32.650Z,22.80
2019-03-29T05:58:01.611Z,21.60
2019-03-29T06:00:35.041Z,23.00
2019-03-29T06:03:10.037Z,22.43
2019-03-29T06:05:43.782Z,22.00
2019-03-29T06:08:17.147Z,22.87
2019-03-29T06:10:50.458Z,29.67
2019-03-29T06:13:27.779Z,23.53
2019-03-29T06:16:01.319Z,19.83
2019-03-29T06:18:34.710Z,22.43
2019-03-29T06:21:08.147Z,22.83
2019-03-29T06:23:41.517Z,21.20
2019-03-29T06:26:14.879Z,19.93
2019-03-29T06:28:48.260Z,21.63
2019-03-29T06:31:21.593Z,20.97
2019-03-29T06:33:55.050Z,17.90
2019-03-29T06:36:29.443Z,21.37
2019-03-29T06:39:05.034Z,16.13
2019-03-29T06:41:38.435Z,16.43
2019-03-29T06:44:11.878Z,15.30
2019-03-29T06:46:45.225Z,15.77
2019-03-29T06:49:18.671Z,17.57
2019-03-29T06:51:52.103Z,16.23
2019-03-29T06:54:25.633Z,14.70
2019-03-29T06:56:58.979Z,13.83
2019-03-29T06:59:32.463Z,14.90
2019-03-29T07:02:05.792Z,18.60
2019-03-29T07:04:39.240Z,13.40
2019-03-29T07:07:12.658Z,15.37
2019-03-29T07:09:46.001Z,12.67
2019-03-29T07:12:19.339Z,20.00
2019-03-29T07:14:52.696Z,19.33
2019-03-29T07:17:26.060Z,18.30
2019-03-29T07:19:59.575Z,21.50
2019-03-29T07:22:34.688Z,22.37
2019-03-29T07:25:08.544Z,17.43
2019-03-29T07:27:46.743Z,17.57
2019-03-29T07:30:17.118Z,17.73
2019-03-29T07:32:50.538Z,13.17
2019-03-29T07:35:23.914Z,14.53
2019-03-29T07:37:57.344Z,13.00
2019-03-29T07:40:32.333Z,12.27
2019-03-29T07:43:05.666Z,11.20
2019-03-29T07:45:39.162Z,9.73
2019-03-29T07:48:12.517Z,10.00
2019-03-29T07:50:46.087Z,8.93
2019-03-29T07:53:19.444Z,9.67
2019-03-29T07:55:52.880Z,9.97
2019-03-29T07:58:26.310Z,8.93
2019-03-29T08:00:59.681Z,9.63
2019-03-29T08:03:33.108Z,9.70
2019-03-29T08:06:06.489Z,9.70
2019-03-29T08:08:39.896Z,9.33
2019-03-29T08:11:25.576Z,10.50
2019-03-29T08:13:48.405Z,10.50
2019-03-29T08:16:21.902Z,9.00
2019-03-29T08:18:56.402Z,9.63
2019-03-29T08:21:29.871Z,10.90
2019-03-29T08:24:03.190Z,8.97
2019-03-29T08:26:36.549Z,9.73
2019-03-29T08:29:10.012Z,10.53
2019-03-29T08:31:43.689Z,10.53
2019-03-29T08:34:17.093Z,8.80
2019-03-29T08:36:50.515Z,9.17
2019-03-29T08:39:28.267Z,9.77
2019-03-29T08:42:00.307Z,8.07
2019-03-29T08:44:34.060Z,10.47
2019-03-29T08:47:07.495Z,10.77
2019-03-29T08:49:40.903Z,7.60
2019-03-29T08:52:14.257Z,8.00
2019-03-29T08:54:51.009Z,7.30
2019-03-29T08:57:22.831Z,8.27
2019-03-29T08:59:56.444Z,7.47
2019-03-29T09:02:30.037Z,6.77
2019-03-29T09:05:03.578Z,5.43
2019-03-29T09:07:44.718Z,9.87
2019-03-29T09:10:23.402Z,6.37
2019-03-29T09:12:56.806Z,5.90
2019-03-29T09:15:30.171Z,7.53
2019-03-29T09:18:03.579Z,4.43
2019-03-29T09:20:37.001Z,4.47
2019-03-29T09:23:10.672Z,3.87
2019-03-29T09:25:44.090Z,3.57
2019-03-29T09:28:17.510Z,3.57
2019-03-29T09:30:50.858Z,3.00
2019-03-29T09:33:24.292Z,3.03
2019-03-29T09:35:57.655Z,3.10
2019-03-29T09:38:31.073Z,4.17
2019-03-29T09:41:04.434Z,2.50
2019-03-29T09:43:37.834Z,2.50
2019-03-29T09:46:11.223Z,2.43
2019-03-29T09:48:44.631Z,3.80
2019-03-29T09:51:18.051Z,2.40
2019-03-29T09:53:51.374Z,2.97
2019-03-29T09:56:37.935Z,2.03
2019-03-29T09:58:59.887Z,3.73
2019-03-29T10:01:33.475Z,2.90
2019-03-29T10:04:06.833Z,3.00
2019-03-29T10:06:42.972Z,2.43
2019-03-29T10:09:16.294Z,2.77
2019-03-29T10:11:49.644Z,2.17
2019-03-29T10:14:23.056Z,2.50
2019-03-29T10:16:56.472Z,1.90
2019-03-29T10:19:29.895Z,2.07
2019-03-29T10:22:03.361Z,4.07
2019-03-29T10:24:36.766Z,2.33
2019-03-29T10:27:10.125Z,2.20
2019-03-29T10:29:43.542Z,2.40
2019-03-29T10:32:16.898Z,1.90
2019-03-29T10:34:50.264Z,1.80
2019-03-29T10:37:23.607Z,2.47
2019-03-29T10:39:57.014Z,2.63
2019-03-29T10:42:30.401Z,2.10
2019-03-29T10:45:04.403Z,2.73
2019-03-29T10:47:43.698Z,2.40
2019-03-29T10:50:13.001Z,2.53
2019-03-29T10:52:46.437Z,2.30
2019-03-29T10:55:19.856Z,2.33
2019-03-29T10:57:53.209Z,2.37
2019-03-29T11:00:34.238Z,2.33
2019-03-29T11:03:07.772Z,3.30
2019-03-29T11:05:41.287Z,3.40
2019-03-29T11:08:14.610Z,2.50
2019-03-29T11:10:48.046Z,2.17
2019-03-29T11:13:21.498Z,2.80
2019-03-29T11:15:54.846Z,2.37
2019-03-29T11:18:28.197Z,3.77
2019-03-29T11:21:01.622Z,2.80
2019-03-29T11:23:35.180Z,2.20
2019-03-29T11:26:08.570Z,2.47
2019-03-29T11:28:42.027Z,2.43
2019-03-29T11:31:15.390Z,2.93
2019-03-29T11:33:48.814Z,3.13
2019-03-29T11:36:22.221Z,3.00
2019-03-29T11:38:55.665Z,2.63
2019-03-29T11:41:29.121Z,2.37
2019-03-29T11:44:02.541Z,2.33
2019-03-29T11:46:35.869Z,2.53
2019-03-29T11:49:09.284Z,2.93
2019-03-29T11:51:42.718Z,3.70
2019-03-29T11:54:16.062Z,2.37
2019-03-29T11:56:49.554Z,2.90
2019-03-29T11:59:23.007Z,2.70
2019-03-29T12:01:56.499Z,2.40
2019-03-29T12:04:29.867Z,2.77
2019-03-29T12:07:03.717Z,2.87
2019-03-29T12:09:37.455Z,3.20
2019-03-29T12:12:10.930Z,3.20
2019-03-29T12:14:44.384Z,3.23
2019-03-29T12:17:17.800Z,3.00
2019-03-29T12:19:51.270Z,3.20
2019-03-29T12:22:24.682Z,2.87
2019-03-29T12:24:58.139Z,3.07
2019-03-29T12:27:31.487Z,3.87
2019-03-29T12:30:09.254Z,3.30
2019-03-29T12:32:42.577Z,5.13
2019-03-29T12:35:15.942Z,3.70
2019-03-29T12:37:51.235Z,4.00
2019-03-29T12:40:24.806Z,3.30
2019-03-29T12:42:58.179Z,8.90
2019-03-29T12:45:31.766Z,5.83
2019-03-29T12:48:05.161Z,4.80
2019-03-29T12:50:38.608Z,4.03
2019-03-29T12:53:11.957Z,4.33
2019-03-29T12:55:45.485Z,3.77
2019-03-29T12:58:19.792Z,4.40
2019-03-29T13:00:53.236Z,3.03
2019-03-29T13:03:26.585Z,4.40
2019-03-29T13:06:00.038Z,4.70
2019-03-29T13:08:33.432Z,4.10
2019-03-29T13:11:06.876Z,3.57
2019-03-29T13:13:40.367Z,3.87
2019-03-29T13:16:13.742Z,3.83
2019-03-29T13:18:47.147Z,3.70
2019-03-29T13:21:20.578Z,3.77
2019-03-29T13:23:54.014Z,3.60
2019-03-29T13:26:27.458Z,3.80
2019-03-29T13:29:01.166Z,3.40
2019-03-29T13:31:34.539Z,4.00
2019-03-29T13:34:08.030Z,3.30
2019-03-29T13:36:41.481Z,3.10
2019-03-29T13:39:14.883Z,3.33
2019-03-29T13:41:48.334Z,3.63
2019-03-29T13:44:24.087Z,4.00
2019-03-29T13:46:56.825Z,4.20
2019-03-29T13:49:30.258Z,3.80
2019-03-29T13:52:03.759Z,3.33
2019-03-29T13:54:37.171Z,4.00
2019-03-29T13:57:10.619Z,3.90
2019-03-29T13:59:44.038Z,4.10
2019-03-29T14:02:17.490Z,3.77
2019-03-29T14:04:50.847Z,4.57
2019-03-29T14:07:24.288Z,4.23
2019-03-29T14:09:57.714Z,3.80
2019-03-29T14:12:31.141Z,4.70
2019-03-29T14:15:06.710Z,3.60
2019-03-29T14:17:40.573Z,4.30
2019-03-29T14:20:17.140Z,3.90
2019-03-29T14:22:50.506Z,3.70
2019-03-29T14:25:23.925Z,4.33
2019-03-29T14:27:57.455Z,4.43
2019-03-29T14:30:30.934Z,5.03
2019-03-29T14:33:04.873Z,5.30
2019-03-29T14:35:39.958Z,5.00
2019-03-29T14:38:13.404Z,4.20
2019-03-29T14:40:46.802Z,4.10
2019-03-29T14:43:20.240Z,4.07
2019-03-29T14:45:53.663Z,3.97
2019-03-29T14:48:27.104Z,3.93
2019-03-29T14:51:00.524Z,4.50
2019-03-29T14:53:33.886Z,4.20
2019-03-29T14:56:07.214Z,4.53
2019-03-29T14:58:43.252Z,6.10
2019-03-29T15:01:16.596Z,4.50
2019-03-29T15:03:50.039Z,5.97
2019-03-29T15:06:23.425Z,5.10
2019-03-29T15:08:56.949Z,4.17
2019-03-29T15:11:30.346Z,5.63
2019-03-29T15:14:03.843Z,5.67
2019-03-29T15:16:37.292Z,5.10
2019-03-29T15:19:10.819Z,4.83
2019-03-29T15:21:44.246Z,6.40
2019-03-29T15:24:17.621Z,8.67
2019-03-29T15:26:51.015Z,5.40
2019-03-29T15:29:24.465Z,6.33
2019-03-29T15:31:57.869Z,4.10
2019-03-29T15:34:31.379Z,5.00
2019-03-29T15:37:04.793Z,6.10
2019-03-29T15:39:38.238Z,4.80
2019-03-29T15:42:11.731Z,4.73
2019-03-29T15:44:45.205Z,6.03
2019-03-29T15:47:18.834Z,4.93
2019-03-29T15:49:56.336Z,4.67
2019-03-29T15:52:27.334Z,5.00
2019-03-29T15:55:00.708Z,5.13
2019-03-29T15:57:34.045Z,4.70
2019-03-29T16:00:11.461Z,5.33
2019-03-29T16:02:44.917Z,4.50
2019-03-29T16:05:18.337Z,4.47
2019-03-29T16:07:51.682Z,5.00
2019-03-29T16:10:25.068Z,4.60
2019-03-29T16:12:58.474Z,4.67
2019-03-29T16:15:36.438Z,6.50
2019-03-29T16:18:07.096Z,6.20
2019-03-29T16:20:40.457Z,4.80
2019-03-29T16:23:13.966Z,6.63
2019-03-29T16:25:47.395Z,4.23
2019-03-29T16:28:20.845Z,4.93
2019-03-29T16:30:54.384Z,4.67
2019-03-29T16:33:27.741Z,5.80
2019-03-29T16:36:01.122Z,4.77
2019-03-29T16:38:34.489Z,5.10
2019-03-29T16:41:07.911Z,5.00
2019-03-29T16:43:41.349Z,4.77
2019-03-29T16:46:14.772Z,5.30
2019-03-29T16:48:48.133Z,4.80
2019-03-29T16:51:21.548Z,4.93
2019-03-29T16:53:54.915Z,6.03
2019-03-29T16:56:31.304Z,4.60
2019-03-29T16:59:04.758Z,5.63
2019-03-29T17:01:38.167Z,5.30
2019-03-29T17:04:11.525Z,6.60
2019-03-29T17:06:44.934Z,5.07
2019-03-29T17:09:18.393Z,4.87
2019-03-29T17:11:51.734Z,5.13
2019-03-29T17:14:25.172Z,6.50
2019-03-29T17:16:58.524Z,5.30
2019-03-29T17:19:31.942Z,5.90
2019-03-29T17:22:05.505Z,6.77
2019-03-29T17:24:38.853Z,7.27
2019-03-29T17:27:12.260Z,5.97
2019-03-29T17:29:45.695Z,5.47
2019-03-29T17:32:21.571Z,6.20
2019-03-29T17:34:54.266Z,17.87
2019-03-29T17:37:27.834Z,5.43
2019-03-29T17:40:01.387Z,6.27
2019-03-29T17:42:34.726Z,6.43
2019-03-29T17:45:08.352Z,7.90
2019-03-29T17:47:41.793Z,5.90
2019-03-29T17:50:15.295Z,5.93
2019-03-29T17:52:48.706Z,6.07
2019-03-29T17:55:22.133Z,7.00
2019-03-29T17:57:55.505Z,5.97
2019-03-29T18:00:29.645Z,8.73
2019-03-29T18:03:03.050Z,12.30
2019-03-29T18:05:36.511Z,6.20
2019-03-29T18:08:09.964Z,9.30
2019-03-29T18:10:43.316Z,6.63
2019-03-29T18:13:16.672Z,7.57
2019-03-29T18:15:50.175Z,7.13
2019-03-29T18:18:23.652Z,5.70
2019-03-29T18:20:57.181Z,8.00
2019-03-29T18:23:30.585Z,8.17
2019-03-29T18:26:04.007Z,11.63
2019-03-29T18:28:38.098Z,6.07
2019-03-29T18:31:11.640Z,8.30
2019-03-29T18:33:45.060Z,7.37
2019-03-29T18:36:18.506Z,10.00
2019-03-29T18:38:52.045Z,9.07
2019-03-29T18:41:25.427Z,8.27
2019-03-29T18:43:58.868Z,10.60
2019-03-29T18:46:44.118Z,9.77
2019-03-29T18:49:07.316Z,7.47
2019-03-29T18:51:40.880Z,8.10
2019-03-29T18:54:14.301Z,11.00
2019-03-29T18:56:47.760Z,8.20
2019-03-29T18:59:21.260Z,7.80
2019-03-29T19:01:54.761Z,14.63
2019-03-29T19:04:28.105Z,12.33
2019-03-29T19:07:01.553Z,11.70
2019-03-29T19:09:35.056Z,12.50
2019-03-29T19:12:08.487Z,8.37
2019-03-29T19:14:41.963Z,9.23
2019-03-29T19:17:15.454Z,11.67
2019-03-29T19:19:48.918Z,12.33
2019-03-29T19:22:22.403Z,10.97
2019-03-29T19:24:55.736Z,10.43
2019-03-29T19:27:29.164Z,10.60
2019-03-29T19:30:02.729Z,9.37
2019-03-29T19:32:37.626Z,9.53
2019-03-29T19:35:11.135Z,16.30
2019-03-29T19:37:44.622Z,9.60
2019-03-29T19:40:18.080Z,11.17
2019-03-29T19:42:51.495Z,12.73
2019-03-29T19:45:24.899Z,13.13
2019-03-29T19:47:58.427Z,14.77
2019-03-29T19:50:31.946Z,11.83
2019-03-29T19:53:05.354Z,14.20
2019-03-29T19:55:38.826Z,14.20
2019-03-29T19:58:12.284Z,12.07
2019-03-29T20:00:45.886Z,11.93
2019-03-29T20:03:19.388Z,10.97
2019-03-29T20:05:52.831Z,11.83
2019-03-29T20:08:26.233Z,13.03
2019-03-29T20:10:59.689Z,11.93
2019-03-29T20:13:33.142Z,13.73
2019-03-29T20:16:06.615Z,15.73
2019-03-29T20:18:40.040Z,14.77
2019-03-29T20:21:13.552Z,18.47
2019-03-29T20:23:47.219Z,14.60
2019-03-29T20:26:20.762Z,18.40
2019-03-29T20:28:54.124Z,16.63
2019-03-29T20:31:27.537Z,17.70
2019-03-29T20:34:00.970Z,16.57
2019-03-29T20:36:34.329Z,15.87
2019-03-29T20:39:08.123Z,14.97
2019-03-29T20:41:41.646Z,14.27
2019-03-29T20:44:14.990Z,16.30
2019-03-29T20:46:48.371Z,13.60
2019-03-29T20:49:21.840Z,13.17
2019-03-29T20:51:58.160Z,9.57
2019-03-29T20:54:31.589Z,10.70
2019-03-29T20:57:08.229Z,12.50
2019-03-29T20:59:41.574Z,10.47
2019-03-29T21:02:16.483Z,10.20
2019-03-29T21:04:49.927Z,11.47
2019-03-29T21:07:23.354Z,11.90
2019-03-29T21:09:56.788Z,12.30
2019-03-29T21:12:30.236Z,12.20
2019-03-29T21:15:04.402Z,13.63
2019-03-29T21:17:37.837Z,10.87
2019-03-29T21:20:11.521Z,14.30
2019-03-29T21:22:44.977Z,11.90
2019-03-29T21:25:18.404Z,12.17
2019-03-29T21:27:51.869Z,13.60
2019-03-29T21:30:26.446Z,12.03
2019-03-29T21:33:01.462Z,11.73
2019-03-29T21:35:34.822Z,10.03
2019-03-29T21:38:08.186Z,12.33
2019-03-29T21:40:41.605Z,11.43
2019-03-29T21:43:14.974Z,10.63
2019-03-29T21:45:48.412Z,10.93
2019-03-29T21:48:29.359Z,10.23
2019-03-29T21:50:56.843Z,9.40
2019-03-29T21:53:30.194Z,11.27
2019-03-29T21:56:03.681Z,12.17
2019-03-29T21:58:37.099Z,10.77
2019-03-29T22:01:10.441Z,11.00
2019-03-29T22:03:43.892Z,13.60
2019-03-29T22:06:17.318Z,10.60
2019-03-29T22:08:50.754Z,14.67
2019-03-29T22:11:24.175Z,13.40
2019-03-29T22:13:57.693Z,13.50
2019-03-29T22:16:31.112Z,12.80
2019-03-29T22:19:04.533Z,10.13
2019-03-29T22:21:37.961Z,10.80
2019-03-29T22:24:11.291Z,11.10
2019-03-29T22:26:44.839Z,11.67
2019-03-29T22:29:18.169Z,12.90
2019-03-29T22:31:51.530Z,11.40
2019-03-29T22:34:24.889Z,9.03
2019-03-29T22:36:58.301Z,10.83
2019-03-29T22:39:31.722Z,10.37
2019-03-29T22:42:05.218Z,12.07
2019-03-29T22:44:38.619Z,12.27
2019-03-29T22:47:12.041Z,13.63
2019-03-29T22:49:45.613Z,11.37
2019-03-29T22:52:18.972Z,11.23
2019-03-29T22:54:52.398Z,11.30
2019-03-29T22:57:25.767Z,12.07
2019-03-29T22:59:59.162Z,11.53
2019-03-29T23:02:32.700Z,12.57
2019-03-29T23:05:07.074Z,11.73
2019-03-29T23:07:40.451Z,11.47
2019-03-29T23:10:13.884Z,10.53
2019-03-29T23:12:47.240Z,12.57
2019-03-29T23:15:20.591Z,10.80
2019-03-29T23:17:54.012Z,12.13
2019-03-29T23:20:27.343Z,11.60
2019-03-29T23:23:00.782Z,12.20
2019-03-29T23:25:34.145Z,12.03
2019-03-29T23:28:07.490Z,11.73
2019-03-29T23:30:40.988Z,12.33
2019-03-29T23:33:14.488Z,14.00
2019-03-29T23:35:47.829Z,12.77
2019-03-29T23:38:21.232Z,10.87
2019-03-29T23:40:54.582Z,13.17
2019-03-29T23:43:28.763Z,13.97
2019-03-29T23:46:02.210Z,11.37
2019-03-29T23:48:35.716Z,12.43
2019-03-29T23:51:09.133Z,10.90
2019-03-29T23:53:42.565Z,12.57
2019-03-29T23:56:15.945Z,10.87
2019-03-29T23:58:49.337Z,12.23
